Time;durP1;ratioP1;P1;durP2;ratioP2;P2;SDS_P1;SDS_P2;PMS_P1;PMS_P2;Temp;Humidity;BMP_temperature;BMP_pressure;BME280_temperature;BME280_humidity;BME280_pressure;Samples;Min_cycle;Max_cycle;Signal;HPM_P1;HPM_P2
2022/01/25 00:31:13;;;;;;;1.33;0.90;;;;;;;;;;5073552;28;20131;-61
2022/01/25 00:33:43;;;;;;;0.10;0.10;;;;;;;;;;5073520;28;20519;-61
2022/01/25 00:36:11;;;;;;;0.55;0.55;;;;;;;;;;5055243;28;20064;-62
2022/01/25 00:38:36;;;;;;;1.95;1.15;;;;;;;;;;5074325;28;20043;-61
2022/01/25 00:41:02;;;;;;;0.28;0.28;;;;;;;;;;5062354;28;20383;-61
2022/01/25 00:43:27;;;;;;;2.15;1.23;;;;;;;;;;5093436;28;20028;-61
2022/01/25 00:45:57;;;;;;;0.30;0.28;;;;;;;;;;5070162;28;20032;-61
2022/01/25 00:48:42;;;;;;;2.33;1.20;;;;;;;;;;5055384;28;20029;-60
2022/01/25 00:56:23;;;;;;;2.35;0.70;;;;;;;;;;5055154;28;20036;-61
2022/01/25 00:58:49;;;;;;;0.55;0.35;;;;;;;;;;5054974;28;20169;-60
2022/01/25 01:01:16;;;;;;;0.10;0.10;;;;;;;;;;5046366;28;20039;-60
2022/01/25 01:03:41;;;;;;;0.32;0.32;;;;;;;;;;5074987;28;20023;-61
2022/01/25 01:06:07;;;;;;;0.13;0.13;;;;;;;;;;5092964;28;20394;-60
2022/01/25 01:08:33;;;;;;;0.20;0.20;;;;;;;;;;5058478;28;20436;-63
2022/01/25 01:11:01;;;;;;;1.08;0.98;;;;;;;;;;5093392;28;20111;-60
2022/01/25 01:16:08;;;;;;;1.15;0.52;;;;;;;;;;5093163;28;20047;-61
2022/01/25 01:29:51;;;;;;;2.22;1.58;;;;;;;;;;5072318;28;20032;-61
2022/01/25 01:48:15;;;;;;;0.10;0.10;;;;;;;;;;5053890;28;20038;-61
2022/01/25 01:50:40;;;;;;;2.35;2.22;;;;;;;;;;5072440;28;20380;-61
2022/01/25 01:53:07;;;;;;;0.85;0.85;;;;;;;;;;5072153;28;20025;-60
2022/01/25 01:55:33;;;;;;;0.10;0.10;;;;;;;;;;5037662;28;20508;-61
2022/01/25 01:57:59;;;;;;;0.10;0.10;;;;;;;;;;5037807;28;20047;-61
2022/01/25 02:00:30;;;;;;;42.10;30.85;;;;;;;;;;5071900;28;20480;-61
2022/01/25 02:02:56;;;;;;;0.57;0.43;;;;;;;;;;5054422;28;20492;-60
2022/01/25 02:05:21;;;;;;;0.10;0.10;;;;;;;;;;5037648;28;20021;-60
2022/01/25 02:07:47;;;;;;;0.15;0.15;;;;;;;;;;5072216;28;20150;-60
2022/01/25 02:10:12;;;;;;;2.53;1.08;;;;;;;;;;5072143;28;20107;-60
2022/01/25 02:12:38;;;;;;;0.10;0.10;;;;;;;;;;5072009;28;20032;-60
2022/01/25 02:15:04;;;;;;;0.10;0.10;;;;;;;;;;5071730;28;20043;-60
2022/01/25 02:23:00;;;;;;;0.20;0.20;;;;;;;;;;5072008;28;20388;-60
2022/01/25 02:25:25;;;;;;;0.10;0.10;;;;;;;;;;5071858;28;20097;-60
2022/01/25 02:27:51;;;;;;;0.70;0.70;;;;;;;;;;5037431;28;20087;-60
2022/01/25 02:30:17;;;;;;;4.47;1.55;;;;;;;;;;5072215;28;20031;-60
2022/01/25 02:32:42;;;;;;;0.57;0.57;;;;;;;;;;5053973;28;20033;-60
2022/01/25 02:35:08;;;;;;;0.10;0.10;;;;;;;;;;5071643;28;20404;-60
2022/01/25 02:37:34;;;;;;;0.10;0.10;;;;;;;;;;5072139;28;20386;-61
2022/01/25 02:40:01;;;;;;;0.10;0.10;;;;;;;;;;5071843;28;20082;-61
2022/01/25 02:42:26;;;;;;;0.10;0.10;;;;;;;;;;5040723;28;20032;-60
2022/01/25 02:44:52;;;;;;;0.10;0.10;;;;;;;;;;5075250;28;20498;-62
2022/01/25 02:50:02;;;;;;;0.10;0.10;;;;;;;;;;5075306;28;20048;-60
2022/01/25 02:52:28;;;;;;;0.10;0.10;;;;;;;;;;5075155;28;20039;-60
2022/01/25 02:54:53;;;;;;;0.10;0.10;;;;;;;;;;5074831;28;20111;-62
2022/01/25 02:57:20;;;;;;;0.22;0.20;;;;;;;;;;5040300;28;20032;-61
2022/01/25 02:59:45;;;;;;;1.70;0.93;;;;;;;;;;5057053;28;20020;-62
2022/01/25 03:02:11;;;;;;;6.35;2.33;;;;;;;;;;5074902;28;20078;-61
2022/01/25 03:04:37;;;;;;;0.50;0.50;;;;;;;;;;5074793;28;20456;-61
2022/01/25 03:07:03;;;;;;;0.82;0.52;;;;;;;;;;5074945;28;20040;-62
2022/01/25 03:09:28;;;;;;;0.38;0.38;;;;;;;;;;5074799;28;20365;-60
2022/01/25 03:11:55;;;;;;;0.20;0.20;;;;;;;;;;5057064;28;20465;-61
2022/01/25 03:14:23;;;;;;;0.45;0.45;;;;;;;;;;5056887;28;20025;-60
2022/01/25 03:17:06;;;;;;;0.10;0.10;;;;;;;;;;5074788;28;20043;-61
2022/01/25 03:22:15;;;;;;;0.80;0.77;;;;;;;;;;5056551;28;20040;-62
2022/01/25 03:24:48;;;;;;;2.47;2.38;;;;;;;;;;5074662;28;20032;-60
2022/01/25 03:27:13;;;;;;;0.10;0.10;;;;;;;;;;5056688;28;20385;-59
2022/01/25 03:29:39;;;;;;;0.25;0.25;;;;;;;;;;5074490;28;20021;-60
2022/01/25 03:32:05;;;;;;;3.95;0.70;;;;;;;;;;5074437;28;20039;-60
2022/01/25 03:34:30;;;;;;;0.43;0.20;;;;;;;;;;5074188;28;20083;-60
2022/01/25 03:36:56;;;;;;;0.30;0.30;;;;;;;;;;5056584;28;20484;-61
2022/01/25 03:39:22;;;;;;;0.40;0.40;;;;;;;;;;5074485;28;20845;-60
2022/01/25 03:41:48;;;;;;;0.98;0.60;;;;;;;;;;5074479;28;20036;-60
2022/01/25 03:44:16;;;;;;;15.88;10.85;;;;;;;;;;5074304;28;20036;-60
2022/01/25 03:47:07;;;;;;;0.13;0.13;;;;;;;;;;5074359;28;20067;-61
2022/01/25 03:52:12;;;;;;;0.57;0.55;;;;;;;;;;5073971;28;20531;-61
2022/01/25 03:54:38;;;;;;;0.10;0.10;;;;;;;;;;5073970;28;20028;-60
2022/01/25 03:57:04;;;;;;;1.35;0.75;;;;;;;;;;5073967;28;20496;-61
2022/01/25 03:59:30;;;;;;;0.63;0.63;;;;;;;;;;5074019;28;20567;-60
2022/01/25 04:01:55;;;;;;;0.20;0.20;;;;;;;;;;5039410;28;20023;-60
2022/01/25 04:04:24;;;;;;;0.20;0.20;;;;;;;;;;5074127;28;20377;-60
2022/01/25 04:06:52;;;;;;;0.15;0.15;;;;;;;;;;5055965;28;20032;-60
2022/01/25 04:09:17;;;;;;;2.50;0.82;;;;;;;;;;5055992;28;20106;-60
2022/01/25 04:11:43;;;;;;;0.10;0.10;;;;;;;;;;5056015;28;20029;-60
2022/01/25 04:14:09;;;;;;;0.10;0.10;;;;;;;;;;5055683;28;20067;-60
2022/01/25 04:16:48;;;;;;;0.10;0.10;;;;;;;;;;5057637;28;20578;-60
2022/01/25 04:27:21;;;;;;;0.13;0.13;;;;;;;;;;5074700;28;20036;-61
2022/01/25 04:29:47;;;;;;;0.10;0.10;;;;;;;;;;5073684;28;20063;-61
2022/01/25 04:32:14;;;;;;;0.10;0.10;;;;;;;;;;5091624;28;20051;-62
2022/01/25 04:34:44;;;;;;;0.20;0.20;;;;;;;;;;5073485;28;20036;-61
2022/01/25 04:53:15;;;;;;;0.10;0.10;;;;;;;;;;5075310;28;20123;-59
2022/01/25 04:58:36;;;;;;;0.52;0.52;;;;;;;;;;5058398;28;20051;-60
2022/01/25 05:01:02;;;;;;;0.50;0.40;;;;;;;;;;5093522;28;20043;-63
2022/01/25 05:03:39;;;;;;;2.08;1.17;;;;;;;;;;5092495;28;20040;-60
2022/01/25 05:06:11;;;;;;;0.20;0.20;;;;;;;;;;5058445;28;20065;-61
2022/01/25 05:08:42;;;;;;;1.00;0.73;;;;;;;;;;5074899;28;20043;-61
2022/01/25 05:11:14;;;;;;;0.70;0.70;;;;;;;;;;5075315;28;20157;-60
2022/01/25 05:13:53;;;;;;;0.10;0.10;;;;;;;;;;5075163;28;20032;-60
2022/01/25 05:16:31;;;;;;;0.10;0.10;;;;;;;;;;5058451;28;20038;-60
2022/01/25 05:24:13;;;;;;;0.10;0.10;;;;;;;;;;5092900;28;20040;-60
2022/01/25 05:26:39;;;;;;;0.10;0.10;;;;;;;;;;5092941;28;20395;-61
2022/01/25 05:29:04;;;;;;;0.10;0.10;;;;;;;;;;5092878;28;20024;-60
2022/01/25 05:31:30;;;;;;;0.40;0.40;;;;;;;;;;5092642;28;20039;-60
2022/01/25 05:33:55;;;;;;;0.10;0.10;;;;;;;;;;5085767;28;20042;-61
2022/01/25 05:36:21;;;;;;;0.35;0.35;;;;;;;;;;5075679;28;20380;-60
2022/01/25 05:38:47;;;;;;;0.10;0.10;;;;;;;;;;5072528;28;20472;-60
2022/01/25 05:41:13;;;;;;;0.10;0.10;;;;;;;;;;5070984;28;20028;-61
2022/01/25 05:47:04;;;;;;;0.10;0.10;;;;;;;;;;4994121;28;20140;-59
2022/01/25 05:49:30;;;;;;;0.20;0.20;;;;;;;;;;5052034;28;20055;-61
2022/01/25 05:51:56;;;;;;;0.10;0.10;;;;;;;;;;5054403;28;20040;-62
2022/01/25 05:54:27;;;;;;;1.15;0.88;;;;;;;;;;5038504;28;20037;-62
2022/01/25 05:56:55;;;;;;;0.10;0.10;;;;;;;;;;5072032;28;20043;-60
2022/01/25 05:59:23;;;;;;;0.10;0.10;;;;;;;;;;5054402;28;20040;-60
2022/01/25 06:01:49;;;;;;;0.10;0.10;;;;;;;;;;5054295;28;20037;-61
2022/01/25 06:04:23;;;;;;;0.30;0.30;;;;;;;;;;5054335;28;20024;-60
2022/01/25 06:06:52;;;;;;;0.20;0.20;;;;;;;;;;5054301;28;20362;-61
2022/01/25 06:09:18;;;;;;;0.43;0.43;;;;;;;;;;5054156;28;20028;-60
2022/01/25 06:11:43;;;;;;;0.10;0.10;;;;;;;;;;5054189;28;20025;-60
2022/01/25 06:14:09;;;;;;;0.10;0.10;;;;;;;;;;5072435;28;20075;-60
2022/01/25 06:16:34;;;;;;;0.10;0.10;;;;;;;;;;5075496;28;20389;-60
2022/01/25 06:19:00;;;;;;;0.20;0.20;;;;;;;;;;5075697;28;20040;-61
2022/01/25 06:21:26;;;;;;;0.35;0.35;;;;;;;;;;5075543;28;20032;-60
2022/01/25 06:23:51;;;;;;;0.15;0.15;;;;;;;;;;5040792;28;20043;-61
2022/01/25 06:26:18;;;;;;;0.10;0.10;;;;;;;;;;5044049;28;20035;-60
2022/01/25 06:28:43;;;;;;;0.13;0.13;;;;;;;;;;5068681;28;20391;-60
2022/01/25 06:31:09;;;;;;;11.25;10.70;;;;;;;;;;5095602;28;20020;-61
2022/01/25 06:33:38;;;;;;;92.95;9.52;;;;;;;;;;5095528;28;20394;-61
2022/01/25 06:36:04;;;;;;;0.20;0.20;;;;;;;;;;5060580;28;20427;-61
2022/01/25 06:38:30;;;;;;;0.22;0.22;;;;;;;;;;5095233;28;20046;-61
2022/01/25 06:40:55;;;;;;;4.00;3.33;;;;;;;;;;5077301;28;20054;-61
2022/01/25 06:43:21;;;;;;;0.10;0.10;;;;;;;;;;5095569;28;20064;-59
2022/01/25 06:45:55;;;;;;;0.10;0.10;;;;;;;;;;5095277;28;20078;-61
2022/01/25 06:48:21;;;;;;;0.10;0.10;;;;;;;;;;5077214;28;20491;-60
2022/01/25 06:50:46;;;;;;;0.10;0.10;;;;;;;;;;5095297;28;20097;-60
2022/01/25 06:53:12;;;;;;;0.38;0.38;;;;;;;;;;5094983;28;20490;-61
2022/01/25 06:55:37;;;;;;;3.75;0.73;;;;;;;;;;5095267;28;20028;-60
2022/01/25 06:58:03;;;;;;;0.32;0.32;;;;;;;;;;5095187;28;20436;-61
2022/01/25 07:00:28;;;;;;;0.10;0.10;;;;;;;;;;5076968;28;20551;-61
2022/01/25 07:02:54;;;;;;;0.10;0.10;;;;;;;;;;5088805;28;20074;-61
2022/01/25 07:05:19;;;;;;;0.20;0.20;;;;;;;;;;5064786;28;20024;-60
2022/01/25 07:07:46;;;;;;;0.10;0.10;;;;;;;;;;5074640;28;20102;-61
2022/01/25 07:10:12;;;;;;;0.10;0.10;;;;;;;;;;5056690;28;20031;-61
2022/01/25 07:12:38;;;;;;;0.10;0.10;;;;;;;;;;5074741;28;20029;-60
2022/01/25 07:15:03;;;;;;;0.10;0.10;;;;;;;;;;5074508;28;20016;-61
2022/01/25 07:17:29;;;;;;;0.10;0.10;;;;;;;;;;5056838;28;20033;-60
2022/01/25 07:19:54;;;;;;;1.38;1.27;;;;;;;;;;5074546;28;20032;-60
2022/01/25 07:22:20;;;;;;;0.85;0.68;;;;;;;;;;5056539;28;20056;-61
2022/01/25 07:24:45;;;;;;;0.20;0.20;;;;;;;;;;5074560;28;20055;-60
2022/01/25 07:27:11;;;;;;;0.10;0.10;;;;;;;;;;5074109;28;20036;-74
2022/01/25 07:29:36;;;;;;;0.20;0.20;;;;;;;;;;5074593;28;20032;-74
2022/01/25 07:32:02;;;;;;;0.20;0.20;;;;;;;;;;5040093;28;20036;-74
2022/01/25 07:34:28;;;;;;;0.17;0.17;;;;;;;;;;5065886;28;20492;-73
2022/01/25 07:36:54;;;;;;;0.20;0.20;;;;;;;;;;5083372;28;20069;-74
2022/01/25 07:39:19;;;;;;;4.53;3.60;;;;;;;;;;5049331;28;20119;-74
2022/01/25 07:41:46;;;;;;;2.30;1.83;;;;;;;;;;5049332;28;20073;-74
2022/01/25 07:44:12;;;;;;;4.80;3.95;;;;;;;;;;5049531;28;20033;-74
2022/01/25 07:46:37;;;;;;;5.90;1.90;;;;;;;;;;5064660;28;20036;-73
2022/01/25 07:49:03;;;;;;;32.85;19.15;;;;;;;;;;5073998;28;20032;-73
2022/01/25 07:51:29;;;;;;;0.20;0.20;;;;;;;;;;5074248;28;20411;-73
2022/01/25 07:53:55;;;;;;;0.20;0.20;;;;;;;;;;5039602;28;20119;-74
2022/01/25 07:56:21;;;;;;;0.13;0.13;;;;;;;;;;5056352;28;20040;-74
2022/01/25 07:58:47;;;;;;;0.20;0.20;;;;;;;;;;5074181;28;20102;-71
2022/01/25 08:01:13;;;;;;;0.30;0.30;;;;;;;;;;5056185;28;20074;-71
2022/01/25 08:03:39;;;;;;;0.52;0.52;;;;;;;;;;5074235;28;20036;-71
2022/01/25 08:06:05;;;;;;;0.35;0.35;;;;;;;;;;5073954;28;20559;-71
2022/01/25 08:08:31;;;;;;;1.38;1.38;;;;;;;;;;5043204;28;20035;-70
2022/01/25 08:10:56;;;;;;;0.10;0.10;;;;;;;;;;5054397;28;20529;-69
2022/01/25 08:13:22;;;;;;;0.20;0.20;;;;;;;;;;5047916;28;20120;-71
2022/01/25 08:15:48;;;;;;;0.40;0.40;;;;;;;;;;5091727;28;20032;-70
2022/01/25 08:18:14;;;;;;;0.20;0.20;;;;;;;;;;5067088;28;20024;-71
2022/01/25 08:20:39;;;;;;;0.20;0.20;;;;;;;;;;5071864;28;20036;-70
2022/01/25 08:23:05;;;;;;;0.20;0.20;;;;;;;;;;5072331;28;20024;-70
2022/01/25 08:25:31;;;;;;;0.20;0.20;;;;;;;;;;5037796;28;20029;-70
2022/01/25 08:27:56;;;;;;;0.32;0.32;;;;;;;;;;5037089;28;20032;-69
2022/01/25 08:30:22;;;;;;;0.50;0.50;;;;;;;;;;5071886;28;20162;-69
2022/01/25 08:32:47;;;;;;;0.20;0.20;;;;;;;;;;5071532;28;20021;-70
2022/01/25 08:35:12;;;;;;;0.20;0.20;;;;;;;;;;5071337;28;20115;-70
2022/01/25 08:37:38;;;;;;;0.20;0.20;;;;;;;;;;5070577;28;20040;-70
2022/01/25 08:40:07;;;;;;;0.20;0.20;;;;;;;;;;5071201;28;20036;-69
2022/01/25 08:42:33;;;;;;;1.05;1.05;;;;;;;;;;5053144;28;20387;-70
2022/01/25 08:44:59;;;;;;;0.22;0.22;;;;;;;;;;5053100;28;20033;-69
2022/01/25 08:47:24;;;;;;;0.20;0.20;;;;;;;;;;5071829;28;20031;-69
2022/01/25 08:49:50;;;;;;;0.38;0.38;;;;;;;;;;5055194;28;20038;-69
2022/01/25 08:52:15;;;;;;;3.60;3.40;;;;;;;;;;5083791;28;20023;-70
2022/01/25 08:54:41;;;;;;;0.20;0.20;;;;;;;;;;5055421;28;20048;-70
2022/01/25 08:57:07;;;;;;;0.20;0.20;;;;;;;;;;5073016;28;20032;-70
2022/01/25 08:59:32;;;;;;;0.20;0.20;;;;;;;;;;5073127;28;20529;-69
2022/01/25 09:01:57;;;;;;;0.30;0.30;;;;;;;;;;5073220;28;20058;-69
2022/01/25 09:04:23;;;;;;;0.22;0.22;;;;;;;;;;5055159;28;20116;-69
2022/01/25 09:06:49;;;;;;;0.30;0.30;;;;;;;;;;5062305;28;20035;-69
2022/01/25 09:09:14;;;;;;;0.88;0.77;;;;;;;;;;5074505;28;20028;-69
2022/01/25 09:11:41;;;;;;;0.32;0.32;;;;;;;;;;5093069;28;20476;-69
2022/01/25 09:14:07;;;;;;;0.28;0.28;;;;;;;;;;5075086;28;20062;-68
2022/01/25 09:16:33;;;;;;;0.30;0.30;;;;;;;;;;5091833;28;20462;-69
2022/01/25 09:18:59;;;;;;;0.20;0.20;;;;;;;;;;5091802;28;20111;-69
2022/01/25 09:21:25;;;;;;;0.30;0.30;;;;;;;;;;5092952;28;20059;-68
2022/01/25 09:23:50;;;;;;;0.30;0.30;;;;;;;;;;5074858;28;20067;-68
2022/01/25 09:26:16;;;;;;;0.30;0.30;;;;;;;;;;5093075;28;20081;-69
2022/01/25 09:28:42;;;;;;;0.20;0.20;;;;;;;;;;5074892;28;20028;-69
2022/01/25 09:31:07;;;;;;;0.20;0.20;;;;;;;;;;5092887;28;20036;-70
2022/01/25 09:33:33;;;;;;;0.30;0.30;;;;;;;;;;5093197;28;20027;-68
2022/01/25 09:35:58;;;;;;;0.30;0.30;;;;;;;;;;5092762;28;20032;-68
2022/01/25 09:38:25;;;;;;;0.68;0.68;;;;;;;;;;5092603;28;20028;-69
2022/01/25 09:40:50;;;;;;;0.22;0.22;;;;;;;;;;5074616;28;20039;-69
2022/01/25 09:43:17;;;;;;;0.20;0.20;;;;;;;;;;5091508;28;20081;-69
2022/01/25 09:45:43;;;;;;;0.30;0.30;;;;;;;;;;5074422;28;20036;-69
2022/01/25 09:48:09;;;;;;;0.30;0.30;;;;;;;;;;5091863;28;20030;-69
2022/01/25 09:50:35;;;;;;;0.30;0.30;;;;;;;;;;5090985;28;20032;-70
2022/01/25 09:53:02;;;;;;;0.30;0.30;;;;;;;;;;5092460;28;20143;-71
2022/01/25 09:55:30;;;;;;;0.63;0.63;;;;;;;;;;5074551;28;20115;-68
2022/01/25 09:57:56;;;;;;;0.30;0.30;;;;;;;;;;5054515;28;20064;-68
2022/01/25 10:00:24;;;;;;;0.20;0.20;;;;;;;;;;5072295;28;20071;-68
2022/01/25 10:02:57;;;;;;;0.30;0.30;;;;;;;;;;5037662;28;20050;-60
2022/01/25 10:05:30;;;;;;;0.40;0.40;;;;;;;;;;5054768;28;20478;-61
2022/01/25 10:07:57;;;;;;;0.20;0.20;;;;;;;;;;5074052;28;20028;-61
2022/01/25 10:10:23;;;;;;;0.30;0.30;;;;;;;;;;5061008;28;20029;-60
2022/01/25 10:12:49;;;;;;;0.20;0.20;;;;;;;;;;5053938;28;20033;-60
2022/01/25 10:15:14;;;;;;;0.20;0.20;;;;;;;;;;5071999;28;20052;-61
2022/01/25 10:17:43;;;;;;;0.20;0.20;;;;;;;;;;5072060;28;20077;-61
2022/01/25 10:20:29;;;;;;;0.25;0.25;;;;;;;;;;5037174;28;20078;-61
2022/01/25 10:22:57;;;;;;;0.30;0.30;;;;;;;;;;5037372;28;20034;-61
2022/01/25 10:25:37;;;;;;;0.30;0.30;;;;;;;;;;5043757;28;20033;-62
2022/01/25 10:28:04;;;;;;;0.30;0.30;;;;;;;;;;5047947;28;20040;-61
2022/01/25 10:30:32;;;;;;;4.85;1.75;;;;;;;;;;5064908;28;20043;-59
2022/01/25 10:33:01;;;;;;;0.77;0.75;;;;;;;;;;5071967;28;20415;-60
2022/01/25 10:35:27;;;;;;;0.20;0.20;;;;;;;;;;5090959;28;20032;-62
2022/01/25 10:37:53;;;;;;;0.30;0.30;;;;;;;;;;5089910;28;20497;-63
2022/01/25 10:40:34;;;;;;;0.63;0.60;;;;;;;;;;5089885;28;20062;-63
2022/01/25 10:42:59;;;;;;;2.22;2.13;;;;;;;;;;5055194;28;20043;-61
2022/01/25 10:45:25;;;;;;;0.20;0.20;;;;;;;;;;5071804;28;20024;-61
2022/01/25 10:47:52;;;;;;;0.30;0.30;;;;;;;;;;5090177;28;20479;-62
2022/01/25 10:50:19;;;;;;;0.77;0.75;;;;;;;;;;5089900;28;20039;-61
2022/01/25 10:52:45;;;;;;;0.35;0.35;;;;;;;;;;5057026;28;20073;-60
2022/01/25 10:55:11;;;;;;;1.90;0.98;;;;;;;;;;5073620;28;20036;-61
2022/01/25 10:57:37;;;;;;;1.25;0.70;;;;;;;;;;5091662;28;20449;-61
2022/01/25 11:00:10;;;;;;;0.65;0.30;;;;;;;;;;5073502;28;20028;-61
2022/01/25 11:02:47;;;;;;;1.75;0.60;;;;;;;;;;5076044;28;20036;-60
2022/01/25 11:05:13;;;;;;;1.13;0.50;;;;;;;;;;5095265;28;20042;-61
2022/01/25 11:07:40;;;;;;;1.00;0.70;;;;;;;;;;5095270;28;20111;-61
2022/01/25 11:10:06;;;;;;;1.30;0.50;;;;;;;;;;5060259;28;20032;-61
2022/01/25 11:12:37;;;;;;;0.32;0.30;;;;;;;;;;5076700;28;20115;-62
2022/01/25 11:15:06;;;;;;;0.20;0.20;;;;;;;;;;5077002;28;20032;-61
2022/01/25 11:17:32;;;;;;;0.10;0.10;;;;;;;;;;5094921;28;20483;-63
2022/01/25 11:19:58;;;;;;;0.20;0.20;;;;;;;;;;5068252;28;20031;-62
2022/01/25 11:22:25;;;;;;;0.35;0.35;;;;;;;;;;5079889;28;20048;-62
2022/01/25 11:24:53;;;;;;;0.20;0.20;;;;;;;;;;5074383;28;20105;-61
2022/01/25 11:27:20;;;;;;;0.20;0.20;;;;;;;;;;5056826;28;20503;-61
2022/01/25 11:29:47;;;;;;;1.02;0.65;;;;;;;;;;5074716;28;20059;-60
2022/01/25 11:32:15;;;;;;;1.17;0.65;;;;;;;;;;5074634;28;20028;-62
2022/01/25 11:34:43;;;;;;;0.13;0.13;;;;;;;;;;5040138;28;20093;-62
2022/01/25 11:37:09;;;;;;;0.40;0.40;;;;;;;;;;5074402;28;20023;-62
2022/01/25 11:39:38;;;;;;;0.30;0.30;;;;;;;;;;5056294;28;20081;-62
2022/01/25 11:42:05;;;;;;;0.22;0.22;;;;;;;;;;5039827;28;20063;-62
2022/01/25 11:44:31;;;;;;;0.55;0.43;;;;;;;;;;5056350;28;20032;-64
2022/01/25 11:46:58;;;;;;;0.20;0.20;;;;;;;;;;5074596;28;20044;-62
2022/01/25 11:49:24;;;;;;;3.53;3.20;;;;;;;;;;5074230;28;20036;-61
2022/01/25 11:52:05;;;;;;;2.35;0.88;;;;;;;;;;5056206;28;20025;-61
2022/01/25 11:54:30;;;;;;;0.20;0.20;;;;;;;;;;5056546;28;20056;-61
2022/01/25 11:57:16;;;;;;;0.30;0.30;;;;;;;;;;5056459;28;20047;-62
2022/01/25 11:59:42;;;;;;;0.20;0.20;;;;;;;;;;5073530;28;20044;-62
2022/01/25 12:02:08;;;;;;;0.22;0.22;;;;;;;;;;5074057;28;20077;-62
2022/01/25 12:04:34;;;;;;;0.43;0.40;;;;;;;;;;5074039;28;20372;-61
2022/01/25 12:07:12;;;;;;;4.47;1.60;;;;;;;;;;5056163;28;20057;-62
2022/01/25 12:10:12;;;;;;;0.20;0.20;;;;;;;;;;5056327;28;20060;-62
2022/01/25 12:12:27;;;;;;;0.85;0.57;;;;;;;;;;5054384;28;20283;-61
2022/01/25 12:14:55;;;;;;;1.52;0.80;;;;;;;;;;5073992;28;20514;-62
2022/01/25 12:17:23;;;;;;;0.20;0.20;;;;;;;;;;5055772;28;20044;-61
2022/01/25 12:19:53;;;;;;;0.22;0.22;;;;;;;;;;5039312;28;20530;-62
2022/01/25 12:25:04;;;;;;;0.20;0.20;;;;;;;;;;5073660;28;20028;-63
2022/01/25 12:27:55;;;;;;;0.20;0.20;;;;;;;;;;5039175;28;20130;-62
2022/01/25 12:30:20;;;;;;;1.35;0.47;;;;;;;;;;5055845;28;20116;-61
2022/01/25 12:32:48;;;;;;;6.05;1.27;;;;;;;;;;5073626;28;20111;-61
2022/01/25 12:35:18;;;;;;;0.50;0.40;;;;;;;;;;5073583;28;20024;-61
2022/01/25 12:37:53;;;;;;;3.10;1.10;;;;;;;;;;5055981;28;20123;-61
2022/01/25 12:40:25;;;;;;;2.10;0.80;;;;;;;;;;5039003;28;20060;-61
2022/01/25 12:42:57;;;;;;;0.10;0.10;;;;;;;;;;5073573;28;20044;-62
2022/01/25 12:45:23;;;;;;;0.20;0.20;;;;;;;;;;5038908;28;20036;-62
2022/01/25 12:47:55;;;;;;;1.00;0.50;;;;;;;;;;5073335;28;20059;-61
2022/01/25 12:50:21;;;;;;;0.10;0.10;;;;;;;;;;5073307;28;20043;-61
2022/01/25 12:52:47;;;;;;;3.45;0.90;;;;;;;;;;5038490;28;20040;-61
2022/01/25 12:55:13;;;;;;;0.22;0.22;;;;;;;;;;5073298;28;20044;-61
2022/01/25 12:57:45;;;;;;;2.10;0.70;;;;;;;;;;5038859;28;20484;-61
2022/01/25 13:00:11;;;;;;;0.20;0.20;;;;;;;;;;5055344;28;20488;-62
2022/01/25 13:02:37;;;;;;;0.20;0.20;;;;;;;;;;5055255;28;20143;-63
2022/01/25 13:05:12;;;;;;;0.15;0.15;;;;;;;;;;5073333;28;20113;-63
2022/01/25 13:07:38;;;;;;;1.15;0.50;;;;;;;;;;5038688;28;20032;-63
2022/01/25 13:10:06;;;;;;;0.20;0.20;;;;;;;;;;5072872;28;20044;-63
2022/01/25 13:12:36;;;;;;;0.20;0.20;;;;;;;;;;5055194;28;20111;-64
2022/01/25 13:15:15;;;;;;;0.10;0.10;;;;;;;;;;5038382;28;20116;-63
2022/01/25 13:17:41;;;;;;;0.10;0.10;;;;;;;;;;5038306;28;20131;-63
2022/01/25 13:20:07;;;;;;;0.20;0.20;;;;;;;;;;5055047;28;20107;-63
2022/01/25 13:22:38;;;;;;;0.20;0.20;;;;;;;;;;5077209;28;20042;-63
2022/01/25 13:27:49;;;;;;;0.38;0.38;;;;;;;;;;5065847;28;20495;-62
2022/01/25 13:32:59;;;;;;;2.35;2.15;;;;;;;;;;5092644;28;20032;-62
2022/01/25 13:35:35;;;;;;;0.52;0.50;;;;;;;;;;5091272;28;20028;-63
2022/01/25 13:38:02;;;;;;;0.32;0.32;;;;;;;;;;5053998;28;20043;-63
2022/01/25 13:40:35;;;;;;;0.98;0.98;;;;;;;;;;5072236;28;20082;-63
2022/01/25 13:43:29;;;;;;;0.40;0.40;;;;;;;;;;5054177;28;20115;-64
2022/01/25 13:45:53;;;;;;;3.47;1.27;;;;;;;;;;5071742;28;20036;-63
2022/01/25 13:48:21;;;;;;;1.38;0.63;;;;;;;;;;5054394;28;20115;-63
2022/01/25 13:50:51;;;;;;;0.20;0.20;;;;;;;;;;5053737;28;20413;-63
2022/01/25 13:53:17;;;;;;;0.40;0.40;;;;;;;;;;5071785;28;20123;-63
2022/01/25 13:55:47;;;;;;;0.20;0.20;;;;;;;;;;5053396;28;20169;-64
2022/01/25 13:58:12;;;;;;;;;;;;;;;;;;5069068;28;20028;-63
2022/01/25 14:00:38;;;;;;;1.13;0.43;;;;;;;;;;5091373;28;20274;-63
2022/01/25 14:03:03;;;;;;;0.10;0.10;;;;;;;;;;5070824;28;20277;-61
2022/01/25 14:05:35;;;;;;;0.90;0.55;;;;;;;;;;5091318;28;20036;-63
2022/01/25 14:08:00;;;;;;;0.20;0.20;;;;;;;;;;5091035;28;20036;-66
2022/01/25 14:10:27;;;;;;;0.85;0.35;;;;;;;;;;5057342;28;20506;-65
2022/01/25 14:23:51;;;;;;;0.40;0.30;;;;;;;;;;5091574;28;20048;-63
2022/01/25 14:26:17;;;;;;;0.30;0.30;;;;;;;;;;5091777;28;20024;-63
2022/01/25 14:28:46;;;;;;;1.55;0.93;;;;;;;;;;5073012;28;20040;-66
2022/01/25 14:31:16;;;;;;;0.13;0.13;;;;;;;;;;5056369;28;20039;-65
2022/01/25 14:33:48;;;;;;;0.63;0.60;;;;;;;;;;5054748;28;20040;-66
2022/01/25 14:36:15;;;;;;;1.85;0.77;;;;;;;;;;5055090;28;20368;-64
2022/01/25 14:38:42;;;;;;;1.77;1.00;;;;;;;;;;5058006;28;20028;-64
2022/01/25 14:41:09;;;;;;;1.52;0.95;;;;;;;;;;5058505;28;20051;-64
2022/01/25 14:43:37;;;;;;;1.17;0.40;;;;;;;;;;5075067;28;20040;-65
2022/01/25 14:46:09;;;;;;;1.00;0.47;;;;;;;;;;5075272;28;20028;-63
2022/01/25 14:48:37;;;;;;;0.30;0.30;;;;;;;;;;5059652;28;20399;-63
2022/01/25 14:51:12;;;;;;;7.55;7.00;;;;;;;;;;5060042;28;20102;-63
2022/01/25 14:53:38;;;;;;;0.30;0.30;;;;;;;;;;5060154;28;20071;-63
2022/01/25 14:56:05;;;;;;;0.20;0.20;;;;;;;;;;5059937;28;20047;-64
2022/01/25 15:01:15;;;;;;;0.10;0.10;;;;;;;;;;5094862;28;20028;-63
2022/01/25 15:03:41;;;;;;;0.20;0.20;;;;;;;;;;5095237;28;20031;-64
2022/01/25 15:06:06;;;;;;;2.10;0.93;;;;;;;;;;5060050;28;20028;-62
2022/01/25 15:08:32;;;;;;;0.73;0.32;;;;;;;;;;5094293;28;20062;-70
2022/01/25 15:11:00;;;;;;;0.70;0.30;;;;;;;;;;5094363;28;20035;-63
2022/01/25 15:13:28;;;;;;;1.75;1.00;;;;;;;;;;5076543;28;20434;-63
2022/01/25 15:15:55;;;;;;;0.22;0.22;;;;;;;;;;5094463;28;20059;-63
2022/01/25 15:18:32;;;;;;;0.20;0.20;;;;;;;;;;5059615;28;20040;-65
2022/01/25 15:20:58;;;;;;;0.20;0.20;;;;;;;;;;5059681;28;20033;-63
2022/01/25 15:23:25;;;;;;;0.20;0.20;;;;;;;;;;5059495;28;20032;-63
2022/01/25 15:25:56;;;;;;;0.75;0.75;;;;;;;;;;5076426;28;20415;-63
2022/01/25 15:28:22;;;;;;;1.33;0.75;;;;;;;;;;5059743;28;20032;-63
2022/01/25 15:30:48;;;;;;;0.40;0.40;;;;;;;;;;5093912;28;20024;-65
2022/01/25 15:33:14;;;;;;;0.98;0.63;;;;;;;;;;5094592;28;20379;-64
2022/01/25 15:35:40;;;;;;;2.58;1.15;;;;;;;;;;5075980;28;20403;-65
2022/01/25 15:38:05;;;;;;;1.33;0.65;;;;;;;;;;5059314;28;20114;-64
2022/01/25 15:40:33;;;;;;;0.40;0.40;;;;;;;;;;5094154;28;20133;-64
2022/01/25 15:42:58;;;;;;;0.20;0.20;;;;;;;;;;5076121;28;20036;-64
2022/01/25 15:45:30;;;;;;;1.27;1.17;;;;;;;;;;5076245;28;20030;-65
2022/01/25 15:47:56;;;;;;;0.20;0.20;;;;;;;;;;5059125;28;20062;-64
2022/01/25 15:50:24;;;;;;;0.25;0.25;;;;;;;;;;5075660;28;20494;-65
2022/01/25 15:52:50;;;;;;;0.20;0.20;;;;;;;;;;5093839;28;20455;-66
2022/01/25 15:55:16;;;;;;;0.40;0.40;;;;;;;;;;5093857;28;20071;-64
2022/01/25 15:57:41;;;;;;;1.75;0.90;;;;;;;;;;5093958;28;20040;-64
2022/01/25 16:00:09;;;;;;;0.20;0.20;;;;;;;;;;5093581;28;20150;-65
2022/01/25 16:02:36;;;;;;;;;;;;;;;;;;5076025;28;20052;-64
2022/01/25 16:05:02;;;;;;;1.25;0.88;;;;;;;;;;5093372;28;20001;-65
2022/01/25 16:07:28;;;;;;;0.60;0.60;;;;;;;;;;5075986;28;20483;-64
2022/01/25 16:09:56;;;;;;;0.75;0.75;;;;;;;;;;5075640;28;20056;-65
2022/01/25 16:12:22;;;;;;;0.30;0.30;;;;;;;;;;5093314;28;20034;-64
2022/01/25 16:14:47;;;;;;;2.30;1.08;;;;;;;;;;5093479;28;20024;-66
2022/01/25 16:17:13;;;;;;;0.15;0.15;;;;;;;;;;5075265;28;20029;-65
2022/01/25 16:19:38;;;;;;;0.22;0.22;;;;;;;;;;5093417;28;20067;-65
2022/01/25 16:22:04;;;;;;;0.30;0.30;;;;;;;;;;5058762;28;20027;-65
2022/01/25 16:24:30;;;;;;;0.45;0.45;;;;;;;;;;5094082;28;20093;-64
2022/01/25 16:26:56;;;;;;;0.28;0.28;;;;;;;;;;5093544;28;20095;-61
2022/01/25 16:29:21;;;;;;;0.20;0.20;;;;;;;;;;5093499;28;20044;-62
2022/01/25 16:31:47;;;;;;;0.43;0.43;;;;;;;;;;5093365;28;20544;-62
2022/01/25 16:34:13;;;;;;;0.38;0.38;;;;;;;;;;5093574;28;20480;-63
2022/01/25 16:36:40;;;;;;;0.20;0.20;;;;;;;;;;5092939;28;20483;-62
2022/01/25 16:39:09;;;;;;;1.73;1.27;;;;;;;;;;5075450;28;20032;-62
2022/01/25 16:41:34;;;;;;;0.10;0.10;;;;;;;;;;5058269;28;20028;-62
2022/01/25 16:44:01;;;;;;;0.10;0.10;;;;;;;;;;5093335;28;20031;-63
2022/01/25 16:46:26;;;;;;;0.22;0.22;;;;;;;;;;5058328;28;20031;-61
2022/01/25 16:48:52;;;;;;;0.20;0.20;;;;;;;;;;5092829;28;20114;-62
2022/01/25 16:51:18;;;;;;;1.55;1.10;;;;;;;;;;5058443;28;20074;-62
2022/01/25 16:53:44;;;;;;;0.95;0.90;;;;;;;;;;5093070;28;20032;-61
2022/01/25 16:56:10;;;;;;;0.20;0.20;;;;;;;;;;5074986;28;20024;-61
2022/01/25 16:58:36;;;;;;;2.22;1.90;;;;;;;;;;5074010;28;20036;-61
2022/01/25 17:01:01;;;;;;;1.02;0.90;;;;;;;;;;5090856;28;20027;-60